sensor_id;sensor_type;location;lat;lon;timestamp;temperature;humidity
22442;DHT22;11388;54.456;9.752;2022-10-26T00:01:12;12.40;99.90
22442;DHT22;11388;54.456;9.752;2022-10-26T00:03:39;12.40;99.90
22442;DHT22;11388;54.456;9.752;2022-10-26T00:06:10;12.50;99.90
22442;DHT22;11388;54.456;9.752;2022-10-26T00:08:36;12.60;99.90
22442;DHT22;11388;54.456;9.752;2022-10-26T00:11:02;12.60;99.90
22442;DHT22;11388;54.456;9.752;2022-10-26T00:13:28;12.60;99.90
22442;DHT22;11388;54.456;9.752;2022-10-26T00:15:54;12.60;99.90
22442;DHT22;11388;54.456;9.752;2022-10-26T00:18:20;12.60;99.90
22442;DHT22;11388;54.456;9.752;2022-10-26T00:20:46;12.60;99.90
22442;DHT22;11388;54.456;9.752;2022-10-26T00:23:12;12.60;99.90
22442;DHT22;11388;54.456;9.752;2022-10-26T00:25:41;12.60;99.90
22442;DHT22;11388;54.456;9.752;2022-10-26T00:28:09;12.50;99.90
22442;DHT22;11388;54.456;9.752;2022-10-26T00:30:38;12.60;99.90
22442;DHT22;11388;54.456;9.752;2022-10-26T00:33:04;12.60;99.90
22442;DHT22;11388;54.456;9.752;2022-10-26T00:35:29;12.70;99.90
22442;DHT22;11388;54.456;9.752;2022-10-26T00:37:55;12.70;99.90
22442;DHT22;11388;54.456;9.752;2022-10-26T00:40:25;12.70;99.90
22442;DHT22;11388;54.456;9.752;2022-10-26T00:42:51;12.70;99.90
22442;DHT22;11388;54.456;9.752;2022-10-26T00:45:26;12.60;99.90
22442;DHT22;11388;54.456;9.752;2022-10-26T00:48:05;12.50;99.90
22442;DHT22;11388;54.456;9.752;2022-10-26T00:50:43;12.60;99.90
22442;DHT22;11388;54.456;9.752;2022-10-26T00:53:11;12.60;99.90
22442;DHT22;11388;54.456;9.752;2022-10-26T00:55:41;12.50;99.90
22442;DHT22;11388;54.456;9.752;2022-10-26T00:58:09;12.40;99.90
22442;DHT22;11388;54.456;9.752;2022-10-26T01:00:35;12.30;99.90
22442;DHT22;11388;54.456;9.752;2022-10-26T01:03:04;12.40;99.90
22442;DHT22;11388;54.456;9.752;2022-10-26T01:05:32;12.50;99.90
22442;DHT22;11388;54.456;9.752;2022-10-26T01:07:59;12.50;99.90
22442;DHT22;11388;54.456;9.752;2022-10-26T01:10:26;12.50;99.90
22442;DHT22;11388;54.456;9.752;2022-10-26T01:12:54;12.50;99.90
22442;DHT22;11388;54.456;9.752;2022-10-26T01:15:26;12.50;99.90
22442;DHT22;11388;54.456;9.752;2022-10-26T01:23:43;12.40;99.90
22442;DHT22;11388;54.456;9.752;2022-10-26T01:26:35;12.40;99.90
22442;DHT22;11388;54.456;9.752;2022-10-26T01:31:54;12.40;99.90
22442;DHT22;11388;54.456;9.752;2022-10-26T01:34:58;12.40;99.90
22442;DHT22;11388;54.456;9.752;2022-10-26T01:37:26;12.40;99.90
22442;DHT22;11388;54.456;9.752;2022-10-26T01:39:59;12.40;99.90
22442;DHT22;11388;54.456;9.752;2022-10-26T01:42:27;12.30;99.90
22442;DHT22;11388;54.456;9.752;2022-10-26T01:45:02;12.20;99.90
22442;DHT22;11388;54.456;9.752;2022-10-26T01:47:30;12.20;99.90
22442;DHT22;11388;54.456;9.752;2022-10-26T01:49:58;12.10;99.90
22442;DHT22;11388;54.456;9.752;2022-10-26T01:52:26;12.20;99.90
22442;DHT22;11388;54.456;9.752;2022-10-26T01:55:46;12.10;99.90
22442;DHT22;11388;54.456;9.752;2022-10-26T01:57:44;12.10;99.90
22442;DHT22;11388;54.456;9.752;2022-10-26T02:00:25;12.10;99.90
22442;DHT22;11388;54.456;9.752;2022-10-26T02:06:10;12.10;99.90
22442;DHT22;11388;54.456;9.752;2022-10-26T02:09:00;12.00;99.90
22442;DHT22;11388;54.456;9.752;2022-10-26T02:11:59;11.90;99.90
22442;DHT22;11388;54.456;9.752;2022-10-26T02:14:47;11.80;99.90
22442;DHT22;11388;54.456;9.752;2022-10-26T02:17:28;11.80;99.90
22442;DHT22;11388;54.456;9.752;2022-10-26T02:20:03;11.90;99.90
22442;DHT22;11388;54.456;9.752;2022-10-26T02:22:38;11.80;99.90
22442;DHT22;11388;54.456;9.752;2022-10-26T02:25:10;11.80;99.90
22442;DHT22;11388;54.456;9.752;2022-10-26T02:27:40;11.80;99.90
22442;DHT22;11388;54.456;9.752;2022-10-26T02:30:08;11.70;99.90
22442;DHT22;11388;54.456;9.752;2022-10-26T02:32:37;11.70;99.90
22442;DHT22;11388;54.456;9.752;2022-10-26T02:35:05;11.70;99.90
22442;DHT22;11388;54.456;9.752;2022-10-26T02:37:32;11.70;99.90
22442;DHT22;11388;54.456;9.752;2022-10-26T02:40:03;11.70;99.90
22442;DHT22;11388;54.456;9.752;2022-10-26T02:42:30;11.60;99.90
22442;DHT22;11388;54.456;9.752;2022-10-26T02:45:07;11.60;99.90
22442;DHT22;11388;54.456;9.752;2022-10-26T02:47:34;11.60;99.90
22442;DHT22;11388;54.456;9.752;2022-10-26T02:50:00;11.60;99.90
22442;DHT22;11388;54.456;9.752;2022-10-26T02:52:52;11.60;99.90
22442;DHT22;11388;54.456;9.752;2022-10-26T02:55:29;11.50;99.90
22442;DHT22;11388;54.456;9.752;2022-10-26T02:58:00;11.60;99.90
22442;DHT22;11388;54.456;9.752;2022-10-26T03:00:26;11.60;99.90
22442;DHT22;11388;54.456;9.752;2022-10-26T03:02:56;11.70;99.90
22442;DHT22;11388;54.456;9.752;2022-10-26T03:05:28;11.70;99.90
22442;DHT22;11388;54.456;9.752;2022-10-26T03:07:55;11.60;99.90
22442;DHT22;11388;54.456;9.752;2022-10-26T03:10:21;11.60;99.90
22442;DHT22;11388;54.456;9.752;2022-10-26T03:12:47;11.60;99.90
22442;DHT22;11388;54.456;9.752;2022-10-26T03:15:13;11.50;99.90
22442;DHT22;11388;54.456;9.752;2022-10-26T03:17:39;11.50;99.90
22442;DHT22;11388;54.456;9.752;2022-10-26T03:20:06;11.50;99.90
22442;DHT22;11388;54.456;9.752;2022-10-26T03:22:32;11.40;99.90
22442;DHT22;11388;54.456;9.752;2022-10-26T03:24:57;11.50;99.90
22442;DHT22;11388;54.456;9.752;2022-10-26T03:27:23;11.50;99.90
22442;DHT22;11388;54.456;9.752;2022-10-26T03:29:49;11.50;99.90
22442;DHT22;11388;54.456;9.752;2022-10-26T03:32:15;11.50;99.90
22442;DHT22;11388;54.456;9.752;2022-10-26T03:34:40;11.50;99.90
22442;DHT22;11388;54.456;9.752;2022-10-26T03:37:06;11.40;99.90
22442;DHT22;11388;54.456;9.752;2022-10-26T03:39:32;11.40;99.90
22442;DHT22;11388;54.456;9.752;2022-10-26T03:42:10;11.40;99.90
22442;DHT22;11388;54.456;9.752;2022-10-26T03:44:38;11.30;99.90
22442;DHT22;11388;54.456;9.752;2022-10-26T03:47:04;11.40;99.90
22442;DHT22;11388;54.456;9.752;2022-10-26T03:49:29;11.40;99.90
22442;DHT22;11388;54.456;9.752;2022-10-26T03:51:55;11.40;99.90
22442;DHT22;11388;54.456;9.752;2022-10-26T03:54:23;11.40;99.90
22442;DHT22;11388;54.456;9.752;2022-10-26T03:56:49;11.40;99.90
22442;DHT22;11388;54.456;9.752;2022-10-26T04:04:23;11.40;99.90
22442;DHT22;11388;54.456;9.752;2022-10-26T04:06:54;11.40;99.90
22442;DHT22;11388;54.456;9.752;2022-10-26T04:09:29;11.40;99.90
22442;DHT22;11388;54.456;9.752;2022-10-26T04:25:08;11.40;99.90
22442;DHT22;11388;54.456;9.752;2022-10-26T04:27:38;11.40;99.90
22442;DHT22;11388;54.456;9.752;2022-10-26T04:30:30;11.30;99.90
22442;DHT22;11388;54.456;9.752;2022-10-26T04:36:39;11.30;99.90
22442;DHT22;11388;54.456;9.752;2022-10-26T04:39:05;11.20;99.90
22442;DHT22;11388;54.456;9.752;2022-10-26T04:41:31;11.20;99.90
22442;DHT22;11388;54.456;9.752;2022-10-26T04:44:27;11.20;99.90
22442;DHT22;11388;54.456;9.752;2022-10-26T04:58:00;11.10;99.90
22442;DHT22;11388;54.456;9.752;2022-10-26T05:00:44;11.20;99.90
22442;DHT22;11388;54.456;9.752;2022-10-26T05:03:41;11.10;99.90
22442;DHT22;11388;54.456;9.752;2022-10-26T05:10:06;11.10;99.90
22442;DHT22;11388;54.456;9.752;2022-10-26T05:15:57;11.20;99.90
22442;DHT22;11388;54.456;9.752;2022-10-26T05:18:27;11.20;99.90
22442;DHT22;11388;54.456;9.752;2022-10-26T05:24:12;11.00;99.90
22442;DHT22;11388;54.456;9.752;2022-10-26T05:30:00;11.10;99.90
22442;DHT22;11388;54.456;9.752;2022-10-26T05:32:35;11.10;99.90
22442;DHT22;11388;54.456;9.752;2022-10-26T05:35:01;11.00;99.90
22442;DHT22;11388;54.456;9.752;2022-10-26T05:37:34;11.00;99.90
22442;DHT22;11388;54.456;9.752;2022-10-26T05:40:06;11.00;99.90
22442;DHT22;11388;54.456;9.752;2022-10-26T05:46:06;11.20;99.90
22442;DHT22;11388;54.456;9.752;2022-10-26T05:48:32;11.10;99.90
22442;DHT22;11388;54.456;9.752;2022-10-26T05:50:58;11.10;99.90
22442;DHT22;11388;54.456;9.752;2022-10-26T05:53:27;11.10;99.90
22442;DHT22;11388;54.456;9.752;2022-10-26T05:55:54;11.10;99.90
22442;DHT22;11388;54.456;9.752;2022-10-26T05:58:30;11.10;99.90
22442;DHT22;11388;54.456;9.752;2022-10-26T06:04:37;11.20;99.90
22442;DHT22;11388;54.456;9.752;2022-10-26T06:07:14;11.20;99.90
22442;DHT22;11388;54.456;9.752;2022-10-26T06:09:45;11.10;99.90
22442;DHT22;11388;54.456;9.752;2022-10-26T06:12:12;11.10;99.90
22442;DHT22;11388;54.456;9.752;2022-10-26T06:14:38;11.00;99.90
22442;DHT22;11388;54.456;9.752;2022-10-26T06:20:31;11.00;99.90
22442;DHT22;11388;54.456;9.752;2022-10-26T06:23:19;11.00;99.90
22442;DHT22;11388;54.456;9.752;2022-10-26T06:29:13;11.10;99.90
22442;DHT22;11388;54.456;9.752;2022-10-26T06:32:02;11.10;99.90
22442;DHT22;11388;54.456;9.752;2022-10-26T06:34:47;11.20;99.90
22442;DHT22;11388;54.456;9.752;2022-10-26T06:37:40;11.20;99.90
22442;DHT22;11388;54.456;9.752;2022-10-26T06:40:07;11.20;99.90
22442;DHT22;11388;54.456;9.752;2022-10-26T06:42:34;11.20;99.90
22442;DHT22;11388;54.456;9.752;2022-10-26T06:45:00;11.10;99.90
22442;DHT22;11388;54.456;9.752;2022-10-26T06:48:07;11.10;99.90
22442;DHT22;11388;54.456;9.752;2022-10-26T06:50:32;11.10;99.90
22442;DHT22;11388;54.456;9.752;2022-10-26T06:55:40;11.00;99.90
22442;DHT22;11388;54.456;9.752;2022-10-26T06:58:17;11.00;99.90
22442;DHT22;11388;54.456;9.752;2022-10-26T07:00:47;11.10;99.90
22442;DHT22;11388;54.456;9.752;2022-10-26T07:03:16;11.10;99.90
22442;DHT22;11388;54.456;9.752;2022-10-26T07:05:42;11.10;99.90
22442;DHT22;11388;54.456;9.752;2022-10-26T07:12:10;11.10;99.90
22442;DHT22;11388;54.456;9.752;2022-10-26T07:14:36;11.10;99.90
22442;DHT22;11388;54.456;9.752;2022-10-26T07:17:03;11.10;99.90
22442;DHT22;11388;54.456;9.752;2022-10-26T07:19:29;11.10;99.90
22442;DHT22;11388;54.456;9.752;2022-10-26T07:22:06;11.00;99.90
22442;DHT22;11388;54.456;9.752;2022-10-26T07:24:42;11.00;99.90
22442;DHT22;11388;54.456;9.752;2022-10-26T07:27:07;11.10;99.90
22442;DHT22;11388;54.456;9.752;2022-10-26T07:29:33;11.10;99.90
22442;DHT22;11388;54.456;9.752;2022-10-26T07:32:00;11.10;99.90
22442;DHT22;11388;54.456;9.752;2022-10-26T07:34:25;11.10;99.90
22442;DHT22;11388;54.456;9.752;2022-10-26T07:36:54;11.10;99.90
22442;DHT22;11388;54.456;9.752;2022-10-26T07:39:20;11.10;99.90
22442;DHT22;11388;54.456;9.752;2022-10-26T07:44:47;11.10;99.90
22442;DHT22;11388;54.456;9.752;2022-10-26T07:47:13;11.10;99.90
22442;DHT22;11388;54.456;9.752;2022-10-26T07:49:39;11.20;99.90
22442;DHT22;11388;54.456;9.752;2022-10-26T07:52:05;11.30;99.90
22442;DHT22;11388;54.456;9.752;2022-10-26T07:54:31;11.30;99.90
22442;DHT22;11388;54.456;9.752;2022-10-26T07:56:57;11.40;99.90
22442;DHT22;11388;54.456;9.752;2022-10-26T07:59:23;11.40;99.90
22442;DHT22;11388;54.456;9.752;2022-10-26T08:01:49;11.50;99.90
22442;DHT22;11388;54.456;9.752;2022-10-26T08:04:15;11.50;99.90
22442;DHT22;11388;54.456;9.752;2022-10-26T08:06:41;11.60;99.90
22442;DHT22;11388;54.456;9.752;2022-10-26T08:09:07;11.50;99.90
22442;DHT22;11388;54.456;9.752;2022-10-26T08:11:33;11.60;99.90
22442;DHT22;11388;54.456;9.752;2022-10-26T08:14:04;11.60;99.90
22442;DHT22;11388;54.456;9.752;2022-10-26T08:16:32;11.60;99.90
22442;DHT22;11388;54.456;9.752;2022-10-26T08:19:12;11.50;99.90
22442;DHT22;11388;54.456;9.752;2022-10-26T08:24:56;11.60;99.90
22442;DHT22;11388;54.456;9.752;2022-10-26T08:27:24;11.70;99.90
22442;DHT22;11388;54.456;9.752;2022-10-26T08:30:09;11.70;99.90
22442;DHT22;11388;54.456;9.752;2022-10-26T08:32:46;11.80;99.90
22442;DHT22;11388;54.456;9.752;2022-10-26T08:35:17;11.80;99.90
22442;DHT22;11388;54.456;9.752;2022-10-26T08:37:45;11.80;99.90
22442;DHT22;11388;54.456;9.752;2022-10-26T08:40:15;11.80;99.90
22442;DHT22;11388;54.456;9.752;2022-10-26T08:42:47;11.80;99.90
22442;DHT22;11388;54.456;9.752;2022-10-26T08:45:36;11.90;99.90
22442;DHT22;11388;54.456;9.752;2022-10-26T08:48:25;11.90;99.90
22442;DHT22;11388;54.456;9.752;2022-10-26T08:51:05;12.00;99.90
22442;DHT22;11388;54.456;9.752;2022-10-26T08:56:45;12.00;99.90
22442;DHT22;11388;54.456;9.752;2022-10-26T09:05:25;12.20;99.90
22442;DHT22;11388;54.456;9.752;2022-10-26T09:08:33;12.30;99.90
22442;DHT22;11388;54.456;9.752;2022-10-26T09:11:18;12.30;99.90
22442;DHT22;11388;54.456;9.752;2022-10-26T09:14:10;12.40;99.90
22442;DHT22;11388;54.456;9.752;2022-10-26T09:16:58;12.40;99.90
22442;DHT22;11388;54.456;9.752;2022-10-26T09:23:33;12.50;99.90
22442;DHT22;11388;54.456;9.752;2022-10-26T09:26:11;12.60;99.90
22442;DHT22;11388;54.456;9.752;2022-10-26T09:29:24;12.50;99.90
22442;DHT22;11388;54.456;9.752;2022-10-26T09:31:52;12.60;99.90
22442;DHT22;11388;54.456;9.752;2022-10-26T09:34:36;12.70;99.90
22442;DHT22;11388;54.456;9.752;2022-10-26T09:37:42;12.80;99.90
22442;DHT22;11388;54.456;9.752;2022-10-26T09:45:37;13.20;99.90
22442;DHT22;11388;54.456;9.752;2022-10-26T09:48:12;13.30;99.90
22442;DHT22;11388;54.456;9.752;2022-10-26T09:50:44;13.30;99.90
22442;DHT22;11388;54.456;9.752;2022-10-26T09:53:11;13.50;99.90
22442;DHT22;11388;54.456;9.752;2022-10-26T09:56:04;13.60;99.90
22442;DHT22;11388;54.456;9.752;2022-10-26T09:59:05;13.70;99.90
22442;DHT22;11388;54.456;9.752;2022-10-26T10:01:33;13.80;99.90
22442;DHT22;11388;54.456;9.752;2022-10-26T10:06:49;13.90;99.90
22442;DHT22;11388;54.456;9.752;2022-10-26T10:09:22;14.00;99.90
22442;DHT22;11388;54.456;9.752;2022-10-26T10:11:57;14.10;99.90
22442;DHT22;11388;54.456;9.752;2022-10-26T10:15:12;14.20;99.90
22442;DHT22;11388;54.456;9.752;2022-10-26T10:17:21;14.30;99.90
22442;DHT22;11388;54.456;9.752;2022-10-26T10:19:47;14.30;99.90
22442;DHT22;11388;54.456;9.752;2022-10-26T10:24:53;14.40;99.90
22442;DHT22;11388;54.456;9.752;2022-10-26T10:27:19;14.60;99.90
22442;DHT22;11388;54.456;9.752;2022-10-26T10:29:53;14.70;99.90
22442;DHT22;11388;54.456;9.752;2022-10-26T10:32:28;14.90;99.90
22442;DHT22;11388;54.456;9.752;2022-10-26T10:34:59;14.90;99.90
22442;DHT22;11388;54.456;9.752;2022-10-26T10:37:26;15.00;99.90
22442;DHT22;11388;54.456;9.752;2022-10-26T10:39:57;15.00;99.90
22442;DHT22;11388;54.456;9.752;2022-10-26T10:42:28;15.00;99.90
22442;DHT22;11388;54.456;9.752;2022-10-26T10:44:54;15.10;99.90
22442;DHT22;11388;54.456;9.752;2022-10-26T10:47:23;15.10;99.90
22442;DHT22;11388;54.456;9.752;2022-10-26T10:49:56;15.20;99.90
22442;DHT22;11388;54.456;9.752;2022-10-26T10:52:29;15.20;99.90
22442;DHT22;11388;54.456;9.752;2022-10-26T10:55:19;15.30;99.90
22442;DHT22;11388;54.456;9.752;2022-10-26T10:58:17;15.30;99.90
22442;DHT22;11388;54.456;9.752;2022-10-26T11:00:47;15.40;99.90
22442;DHT22;11388;54.456;9.752;2022-10-26T11:03:24;15.50;99.90
22442;DHT22;11388;54.456;9.752;2022-10-26T11:11:02;15.60;99.90
22442;DHT22;11388;54.456;9.752;2022-10-26T11:13:51;15.80;99.90
22442;DHT22;11388;54.456;9.752;2022-10-26T11:16:46;16.00;99.90
22442;DHT22;11388;54.456;9.752;2022-10-26T11:19:24;16.10;99.90
22442;DHT22;11388;54.456;9.752;2022-10-26T11:21:53;16.10;99.90
22442;DHT22;11388;54.456;9.752;2022-10-26T11:24:30;16.20;99.90
22442;DHT22;11388;54.456;9.752;2022-10-26T11:27:04;16.30;99.90
22442;DHT22;11388;54.456;9.752;2022-10-26T11:32:31;16.30;99.90
22442;DHT22;11388;54.456;9.752;2022-10-26T11:35:23;16.30;99.90
22442;DHT22;11388;54.456;9.752;2022-10-26T11:38:03;16.30;99.90
22442;DHT22;11388;54.456;9.752;2022-10-26T11:49:09;17.00;99.90
22442;DHT22;11388;54.456;9.752;2022-10-26T11:52:00;17.20;99.90
22442;DHT22;11388;54.456;9.752;2022-10-26T11:54:41;17.10;99.90
22442;DHT22;11388;54.456;9.752;2022-10-26T11:57:10;17.50;99.90
22442;DHT22;11388;54.456;9.752;2022-10-26T12:03:17;19.40;99.90
22442;DHT22;11388;54.456;9.752;2022-10-26T12:06:26;20.70;99.90
22442;DHT22;11388;54.456;9.752;2022-10-26T12:08:57;22.00;99.90
22442;DHT22;11388;54.456;9.752;2022-10-26T12:14:36;22.50;99.90
22442;DHT22;11388;54.456;9.752;2022-10-26T12:20:28;22.40;99.90
22442;DHT22;11388;54.456;9.752;2022-10-26T12:23:05;21.50;99.90
22442;DHT22;11388;54.456;9.752;2022-10-26T12:25:32;20.70;99.90
22442;DHT22;11388;54.456;9.752;2022-10-26T12:28:03;20.20;99.90
22442;DHT22;11388;54.456;9.752;2022-10-26T12:30:38;19.90;99.90
22442;DHT22;11388;54.456;9.752;2022-10-26T12:33:28;19.90;99.90
22442;DHT22;11388;54.456;9.752;2022-10-26T12:35:59;19.50;99.90
22442;DHT22;11388;54.456;9.752;2022-10-26T12:41:39;19.20;99.90
22442;DHT22;11388;54.456;9.752;2022-10-26T12:52:53;18.80;99.90
22442;DHT22;11388;54.456;9.752;2022-10-26T13:00:43;18.00;99.90
22442;DHT22;11388;54.456;9.752;2022-10-26T13:08:44;17.50;99.90
22442;DHT22;11388;54.456;9.752;2022-10-26T13:12:04;17.60;99.90
22442;DHT22;11388;54.456;9.752;2022-10-26T13:14:51;17.70;99.90
22442;DHT22;11388;54.456;9.752;2022-10-26T13:17:27;17.60;99.90
22442;DHT22;11388;54.456;9.752;2022-10-26T13:24:10;17.70;99.90
22442;DHT22;11388;54.456;9.752;2022-10-26T13:34:31;17.60;99.90
22442;DHT22;11388;54.456;9.752;2022-10-26T14:03:28;17.60;99.90
22442;DHT22;11388;54.456;9.752;2022-10-26T14:05:55;17.60;99.90
22442;DHT22;11388;54.456;9.752;2022-10-26T14:08:26;17.50;99.90
22442;DHT22;11388;54.456;9.752;2022-10-26T14:11:03;17.50;99.90
22442;DHT22;11388;54.456;9.752;2022-10-26T14:13:40;17.40;99.90
22442;DHT22;11388;54.456;9.752;2022-10-26T14:16:40;17.40;99.90
22442;DHT22;11388;54.456;9.752;2022-10-26T14:29:54;17.40;99.90
22442;DHT22;11388;54.456;9.752;2022-10-26T14:39:46;17.40;99.90
22442;DHT22;11388;54.456;9.752;2022-10-26T14:42:45;17.40;99.90
22442;DHT22;11388;54.456;9.752;2022-10-26T14:48:04;17.20;99.90
22442;DHT22;11388;54.456;9.752;2022-10-26T14:50:40;17.20;99.90
22442;DHT22;11388;54.456;9.752;2022-10-26T14:53:16;17.20;99.90
22442;DHT22;11388;54.456;9.752;2022-10-26T14:55:50;17.10;99.90
22442;DHT22;11388;54.456;9.752;2022-10-26T14:58:36;17.10;99.90
22442;DHT22;11388;54.456;9.752;2022-10-26T15:01:32;17.00;99.90
22442;DHT22;11388;54.456;9.752;2022-10-26T15:05:30;17.00;99.90
22442;DHT22;11388;54.456;9.752;2022-10-26T15:11:34;17.10;99.90
22442;DHT22;11388;54.456;9.752;2022-10-26T15:14:02;17.00;99.90
22442;DHT22;11388;54.456;9.752;2022-10-26T15:16:32;17.00;99.90
22442;DHT22;11388;54.456;9.752;2022-10-26T15:21:45;16.90;99.90
22442;DHT22;11388;54.456;9.752;2022-10-26T15:24:31;16.90;99.90
22442;DHT22;11388;54.456;9.752;2022-10-26T15:26:58;17.00;99.90
22442;DHT22;11388;54.456;9.752;2022-10-26T15:29:44;16.90;99.90
22442;DHT22;11388;54.456;9.752;2022-10-26T15:32:31;16.80;99.90
22442;DHT22;11388;54.456;9.752;2022-10-26T15:35:13;16.80;99.90
22442;DHT22;11388;54.456;9.752;2022-10-26T15:37:39;16.70;99.90
22442;DHT22;11388;54.456;9.752;2022-10-26T15:40:06;16.70;99.90
22442;DHT22;11388;54.456;9.752;2022-10-26T15:42:34;16.60;99.90
22442;DHT22;11388;54.456;9.752;2022-10-26T15:45:03;16.50;99.90
22442;DHT22;11388;54.456;9.752;2022-10-26T15:47:32;16.50;99.90
22442;DHT22;11388;54.456;9.752;2022-10-26T15:49:59;16.50;99.90
22442;DHT22;11388;54.456;9.752;2022-10-26T15:52:24;16.60;99.90
22442;DHT22;11388;54.456;9.752;2022-10-26T15:54:50;16.50;99.90
22442;DHT22;11388;54.456;9.752;2022-10-26T15:57:16;16.50;99.90
22442;DHT22;11388;54.456;9.752;2022-10-26T15:59:41;16.50;99.90
22442;DHT22;11388;54.456;9.752;2022-10-26T16:02:14;16.50;99.90
22442;DHT22;11388;54.456;9.752;2022-10-26T16:04:40;16.50;99.90
22442;DHT22;11388;54.456;9.752;2022-10-26T16:07:15;16.50;99.90
22442;DHT22;11388;54.456;9.752;2022-10-26T16:09:42;16.40;99.90
22442;DHT22;11388;54.456;9.752;2022-10-26T16:12:10;16.40;99.90
22442;DHT22;11388;54.456;9.752;2022-10-26T16:14:37;16.30;99.90
22442;DHT22;11388;54.456;9.752;2022-10-26T16:17:03;16.30;99.90
22442;DHT22;11388;54.456;9.752;2022-10-26T16:19:29;16.20;99.90
22442;DHT22;11388;54.456;9.752;2022-10-26T16:21:54;16.20;99.90
22442;DHT22;11388;54.456;9.752;2022-10-26T16:24:20;16.20;99.90
22442;DHT22;11388;54.456;9.752;2022-10-26T16:26:46;16.10;99.90
22442;DHT22;11388;54.456;9.752;2022-10-26T16:29:12;16.10;99.90
22442;DHT22;11388;54.456;9.752;2022-10-26T16:31:41;16.00;99.90
22442;DHT22;11388;54.456;9.752;2022-10-26T16:34:07;16.00;99.90
22442;DHT22;11388;54.456;9.752;2022-10-26T16:36:33;16.00;99.90
22442;DHT22;11388;54.456;9.752;2022-10-26T16:38:59;16.00;99.90
22442;DHT22;11388;54.456;9.752;2022-10-26T16:41:25;15.90;99.90
22442;DHT22;11388;54.456;9.752;2022-10-26T16:43:50;15.90;99.90
22442;DHT22;11388;54.456;9.752;2022-10-26T16:46:18;15.80;99.90
22442;DHT22;11388;54.456;9.752;2022-10-26T16:48:46;15.90;99.90
22442;DHT22;11388;54.456;9.752;2022-10-26T16:51:20;15.80;99.90
22442;DHT22;11388;54.456;9.752;2022-10-26T16:53:48;15.90;99.90
22442;DHT22;11388;54.456;9.752;2022-10-26T16:56:16;15.80;99.90
22442;DHT22;11388;54.456;9.752;2022-10-26T16:58:42;15.80;99.90
22442;DHT22;11388;54.456;9.752;2022-10-26T17:01:09;15.70;99.90
22442;DHT22;11388;54.456;9.752;2022-10-26T17:03:40;15.70;99.90
22442;DHT22;11388;54.456;9.752;2022-10-26T17:06:06;15.70;99.90
22442;DHT22;11388;54.456;9.752;2022-10-26T17:08:54;15.70;99.90
22442;DHT22;11388;54.456;9.752;2022-10-26T17:11:26;15.50;99.90
22442;DHT22;11388;54.456;9.752;2022-10-26T17:14:10;15.40;99.90
22442;DHT22;11388;54.456;9.752;2022-10-26T17:16:36;15.50;99.90
22442;DHT22;11388;54.456;9.752;2022-10-26T17:19:01;15.50;99.90
22442;DHT22;11388;54.456;9.752;2022-10-26T17:21:30;15.50;99.90
22442;DHT22;11388;54.456;9.752;2022-10-26T17:23:56;15.50;99.90
22442;DHT22;11388;54.456;9.752;2022-10-26T17:26:25;15.60;99.90
22442;DHT22;11388;54.456;9.752;2022-10-26T17:29:19;15.50;99.90
22442;DHT22;11388;54.456;9.752;2022-10-26T17:31:48;15.50;99.90
22442;DHT22;11388;54.456;9.752;2022-10-26T17:34:24;15.50;99.90
22442;DHT22;11388;54.456;9.752;2022-10-26T17:36:50;15.50;99.90
22442;DHT22;11388;54.456;9.752;2022-10-26T17:39:36;15.40;99.90
22442;DHT22;11388;54.456;9.752;2022-10-26T17:42:11;15.40;99.90
22442;DHT22;11388;54.456;9.752;2022-10-26T17:44:37;15.40;99.90
22442;DHT22;11388;54.456;9.752;2022-10-26T17:47:14;15.40;99.90
22442;DHT22;11388;54.456;9.752;2022-10-26T17:49:47;15.40;99.90
22442;DHT22;11388;54.456;9.752;2022-10-26T17:55:22;15.30;99.90
22442;DHT22;11388;54.456;9.752;2022-10-26T17:58:06;15.40;99.90
22442;DHT22;11388;54.456;9.752;2022-10-26T18:00:41;15.40;99.90
22442;DHT22;11388;54.456;9.752;2022-10-26T18:03:16;15.40;99.90
22442;DHT22;11388;54.456;9.752;2022-10-26T18:05:51;15.40;99.90
22442;DHT22;11388;54.456;9.752;2022-10-26T18:08:36;15.40;99.90
22442;DHT22;11388;54.456;9.752;2022-10-26T18:11:12;15.50;99.90
22442;DHT22;11388;54.456;9.752;2022-10-26T18:13:40;15.50;99.90
22442;DHT22;11388;54.456;9.752;2022-10-26T18:16:11;15.60;99.90
22442;DHT22;11388;54.456;9.752;2022-10-26T18:18:45;15.60;99.90
22442;DHT22;11388;54.456;9.752;2022-10-26T18:21:15;15.70;99.90
22442;DHT22;11388;54.456;9.752;2022-10-26T18:23:45;15.70;99.90
22442;DHT22;11388;54.456;9.752;2022-10-26T18:26:19;15.70;99.90
22442;DHT22;11388;54.456;9.752;2022-10-26T18:28:48;15.70;99.90
22442;DHT22;11388;54.456;9.752;2022-10-26T18:31:19;15.80;99.90
22442;DHT22;11388;54.456;9.752;2022-10-26T18:33:57;15.70;99.90
22442;DHT22;11388;54.456;9.752;2022-10-26T18:36:24;15.80;99.90
22442;DHT22;11388;54.456;9.752;2022-10-26T18:38:55;15.80;99.90
22442;DHT22;11388;54.456;9.752;2022-10-26T18:41:22;15.80;99.90
22442;DHT22;11388;54.456;9.752;2022-10-26T18:43:50;15.80;99.90
22442;DHT22;11388;54.456;9.752;2022-10-26T18:46:29;15.90;99.90
22442;DHT22;11388;54.456;9.752;2022-10-26T18:48:56;15.90;99.90
22442;DHT22;11388;54.456;9.752;2022-10-26T18:51:28;15.90;99.90
22442;DHT22;11388;54.456;9.752;2022-10-26T18:54:11;15.90;99.90
22442;DHT22;11388;54.456;9.752;2022-10-26T18:56:37;15.90;99.90
22442;DHT22;11388;54.456;9.752;2022-10-26T18:59:06;16.00;99.90
22442;DHT22;11388;54.456;9.752;2022-10-26T19:01:44;15.90;99.90
22442;DHT22;11388;54.456;9.752;2022-10-26T19:04:11;16.00;99.90
22442;DHT22;11388;54.456;9.752;2022-10-26T19:06:42;16.00;99.90
22442;DHT22;11388;54.456;9.752;2022-10-26T19:09:16;15.90;99.90
22442;DHT22;11388;54.456;9.752;2022-10-26T19:12:26;15.90;99.90
22442;DHT22;11388;54.456;9.752;2022-10-26T19:14:54;15.90;99.90
22442;DHT22;11388;54.456;9.752;2022-10-26T19:17:42;15.90;99.90
22442;DHT22;11388;54.456;9.752;2022-10-26T19:20:48;15.90;99.90
22442;DHT22;11388;54.456;9.752;2022-10-26T19:23:21;15.90;99.90
22442;DHT22;11388;54.456;9.752;2022-10-26T19:29:15;15.90;99.90
22442;DHT22;11388;54.456;9.752;2022-10-26T19:31:41;15.90;99.90
22442;DHT22;11388;54.456;9.752;2022-10-26T19:34:09;15.80;99.90
22442;DHT22;11388;54.456;9.752;2022-10-26T19:36:36;15.80;99.90
22442;DHT22;11388;54.456;9.752;2022-10-26T19:39:02;15.60;99.90
22442;DHT22;11388;54.456;9.752;2022-10-26T19:41:28;15.70;99.90
22442;DHT22;11388;54.456;9.752;2022-10-26T19:43:56;15.70;99.90
22442;DHT22;11388;54.456;9.752;2022-10-26T19:46:24;15.70;99.90
22442;DHT22;11388;54.456;9.752;2022-10-26T19:48:55;15.70;99.90
22442;DHT22;11388;54.456;9.752;2022-10-26T19:51:21;15.70;99.90
22442;DHT22;11388;54.456;9.752;2022-10-26T19:53:47;15.80;99.90
22442;DHT22;11388;54.456;9.752;2022-10-26T19:56:14;15.80;99.90
22442;DHT22;11388;54.456;9.752;2022-10-26T19:58:41;15.80;99.90